sensor_id;sensor_type;location;lat;lon;timestamp;temperature;humidity
54272;DHT22;40184;53.362;5.216;2022-11-15T00:01:47;9.00;99.90
54272;DHT22;40184;53.362;5.216;2022-11-15T00:04:13;9.00;99.90
54272;DHT22;40184;53.362;5.216;2022-11-15T00:06:38;9.00;99.90
54272;DHT22;40184;53.362;5.216;2022-11-15T00:09:04;8.90;99.90
54272;DHT22;40184;53.362;5.216;2022-11-15T00:11:30;8.80;99.90
54272;DHT22;40184;53.362;5.216;2022-11-15T00:13:56;8.80;99.90
54272;DHT22;40184;53.362;5.216;2022-11-15T00:16:23;8.80;99.90
54272;DHT22;40184;53.362;5.216;2022-11-15T00:18:49;8.80;99.90
54272;DHT22;40184;53.362;5.216;2022-11-15T00:21:15;8.90;99.90
54272;DHT22;40184;53.362;5.216;2022-11-15T00:23:41;8.90;99.90
54272;DHT22;40184;53.362;5.216;2022-11-15T00:26:08;8.90;99.90
54272;DHT22;40184;53.362;5.216;2022-11-15T00:28:36;8.90;99.90
54272;DHT22;40184;53.362;5.216;2022-11-15T00:31:07;8.80;99.90
54272;DHT22;40184;53.362;5.216;2022-11-15T00:33:34;8.90;99.90
54272;DHT22;40184;53.362;5.216;2022-11-15T00:36:05;8.80;99.90
54272;DHT22;40184;53.362;5.216;2022-11-15T00:38:35;9.00;99.90
54272;DHT22;40184;53.362;5.216;2022-11-15T00:41:02;8.80;99.90
54272;DHT22;40184;53.362;5.216;2022-11-15T00:43:28;9.00;99.90
54272;DHT22;40184;53.362;5.216;2022-11-15T00:45:54;8.90;99.90
54272;DHT22;40184;53.362;5.216;2022-11-15T00:48:20;8.90;99.90
54272;DHT22;40184;53.362;5.216;2022-11-15T00:50:45;8.90;99.90
54272;DHT22;40184;53.362;5.216;2022-11-15T00:53:11;8.90;99.90
54272;DHT22;40184;53.362;5.216;2022-11-15T00:55:37;8.80;99.90
54272;DHT22;40184;53.362;5.216;2022-11-15T00:58:02;8.80;99.90
54272;DHT22;40184;53.362;5.216;2022-11-15T01:00:28;8.80;99.90
54272;DHT22;40184;53.362;5.216;2022-11-15T01:02:54;8.90;99.90
54272;DHT22;40184;53.362;5.216;2022-11-15T01:05:20;8.70;99.90
54272;DHT22;40184;53.362;5.216;2022-11-15T01:07:46;8.70;99.90
54272;DHT22;40184;53.362;5.216;2022-11-15T01:10:11;8.70;99.90
54272;DHT22;40184;53.362;5.216;2022-11-15T01:12:37;8.70;99.90
54272;DHT22;40184;53.362;5.216;2022-11-15T01:15:04;8.70;99.90
54272;DHT22;40184;53.362;5.216;2022-11-15T01:17:31;8.60;99.90
54272;DHT22;40184;53.362;5.216;2022-11-15T01:19:57;8.60;99.90
54272;DHT22;40184;53.362;5.216;2022-11-15T01:22:22;8.60;99.90
54272;DHT22;40184;53.362;5.216;2022-11-15T01:24:50;8.70;99.90
54272;DHT22;40184;53.362;5.216;2022-11-15T01:27:16;8.50;99.90
54272;DHT22;40184;53.362;5.216;2022-11-15T01:29:41;8.50;99.90
54272;DHT22;40184;53.362;5.216;2022-11-15T01:32:07;8.40;99.90
54272;DHT22;40184;53.362;5.216;2022-11-15T01:34:33;8.30;99.90
54272;DHT22;40184;53.362;5.216;2022-11-15T01:36:59;8.40;99.90
54272;DHT22;40184;53.362;5.216;2022-11-15T01:39:25;8.30;99.90
54272;DHT22;40184;53.362;5.216;2022-11-15T01:41:50;8.30;99.90
54272;DHT22;40184;53.362;5.216;2022-11-15T01:47:03;8.20;99.90
54272;DHT22;40184;53.362;5.216;2022-11-15T01:49:33;8.10;99.90
54272;DHT22;40184;53.362;5.216;2022-11-15T01:52:01;8.20;99.90
54272;DHT22;40184;53.362;5.216;2022-11-15T01:54:27;8.20;99.90
54272;DHT22;40184;53.362;5.216;2022-11-15T01:56:56;8.20;99.90
54272;DHT22;40184;53.362;5.216;2022-11-15T01:59:23;8.20;99.90
54272;DHT22;40184;53.362;5.216;2022-11-15T02:01:49;8.10;99.90
54272;DHT22;40184;53.362;5.216;2022-11-15T02:04:47;8.10;99.90
54272;DHT22;40184;53.362;5.216;2022-11-15T02:07:17;8.10;99.90
54272;DHT22;40184;53.362;5.216;2022-11-15T02:09:44;8.10;99.90
54272;DHT22;40184;53.362;5.216;2022-11-15T02:12:13;8.00;99.90
54272;DHT22;40184;53.362;5.216;2022-11-15T02:14:42;8.00;99.90
54272;DHT22;40184;53.362;5.216;2022-11-15T02:31:28;8.00;99.90
54272;DHT22;40184;53.362;5.216;2022-11-15T02:36:34;8.00;99.90
54272;DHT22;40184;53.362;5.216;2022-11-15T02:42:00;8.00;99.90
54272;DHT22;40184;53.362;5.216;2022-11-15T02:44:47;8.00;99.90
54272;DHT22;40184;53.362;5.216;2022-11-15T02:47:16;7.80;99.90
54272;DHT22;40184;53.362;5.216;2022-11-15T02:49:57;7.90;99.90
54272;DHT22;40184;53.362;5.216;2022-11-15T02:52:25;7.90;99.90
54272;DHT22;40184;53.362;5.216;2022-11-15T02:54:59;7.90;99.90
54272;DHT22;40184;53.362;5.216;2022-11-15T03:07:45;8.10;99.90
54272;DHT22;40184;53.362;5.216;2022-11-15T03:10:20;8.10;99.90
54272;DHT22;40184;53.362;5.216;2022-11-15T03:12:57;8.20;99.90
54272;DHT22;40184;53.362;5.216;2022-11-15T03:15:36;8.10;99.90
54272;DHT22;40184;53.362;5.216;2022-11-15T03:18:10;8.20;99.90
54272;DHT22;40184;53.362;5.216;2022-11-15T03:20:37;8.20;99.90
54272;DHT22;40184;53.362;5.216;2022-11-15T03:23:06;8.20;99.90
54272;DHT22;40184;53.362;5.216;2022-11-15T03:25:36;8.30;99.90
54272;DHT22;40184;53.362;5.216;2022-11-15T03:28:05;8.20;99.90
54272;DHT22;40184;53.362;5.216;2022-11-15T03:30:33;8.20;99.90
54272;DHT22;40184;53.362;5.216;2022-11-15T03:33:00;8.20;99.90
54272;DHT22;40184;53.362;5.216;2022-11-15T03:35:31;8.30;99.90
54272;DHT22;40184;53.362;5.216;2022-11-15T03:40:49;8.40;99.90
54272;DHT22;40184;53.362;5.216;2022-11-15T03:43:43;8.50;99.90
54272;DHT22;40184;53.362;5.216;2022-11-15T03:46:28;8.50;99.90
54272;DHT22;40184;53.362;5.216;2022-11-15T03:49:16;8.50;99.90
54272;DHT22;40184;53.362;5.216;2022-11-15T03:51:42;8.50;99.90
54272;DHT22;40184;53.362;5.216;2022-11-15T03:54:08;8.50;99.90
54272;DHT22;40184;53.362;5.216;2022-11-15T03:56:34;8.50;99.90
54272;DHT22;40184;53.362;5.216;2022-11-15T03:58:59;8.60;99.90
54272;DHT22;40184;53.362;5.216;2022-11-15T04:01:25;8.60;99.90
54272;DHT22;40184;53.362;5.216;2022-11-15T04:03:51;8.60;99.90
54272;DHT22;40184;53.362;5.216;2022-11-15T04:06:16;8.60;99.90
54272;DHT22;40184;53.362;5.216;2022-11-15T04:08:42;8.70;99.90
54272;DHT22;40184;53.362;5.216;2022-11-15T04:11:08;8.70;99.90
54272;DHT22;40184;53.362;5.216;2022-11-15T04:13:33;8.60;99.90
54272;DHT22;40184;53.362;5.216;2022-11-15T04:15:59;8.80;99.90
54272;DHT22;40184;53.362;5.216;2022-11-15T04:18:25;8.70;99.90
54272;DHT22;40184;53.362;5.216;2022-11-15T04:20:50;8.80;99.90
54272;DHT22;40184;53.362;5.216;2022-11-15T04:23:34;8.90;99.90
54272;DHT22;40184;53.362;5.216;2022-11-15T04:26:21;8.80;99.90
54272;DHT22;40184;53.362;5.216;2022-11-15T04:28:47;8.80;99.90
54272;DHT22;40184;53.362;5.216;2022-11-15T04:31:32;8.80;99.90
54272;DHT22;40184;53.362;5.216;2022-11-15T04:33:58;9.00;99.90
54272;DHT22;40184;53.362;5.216;2022-11-15T04:36:24;9.00;99.90
54272;DHT22;40184;53.362;5.216;2022-11-15T04:39:08;8.90;99.90
54272;DHT22;40184;53.362;5.216;2022-11-15T04:41:34;9.10;99.90
54272;DHT22;40184;53.362;5.216;2022-11-15T04:44:00;9.10;99.90
54272;DHT22;40184;53.362;5.216;2022-11-15T04:46:26;8.90;99.90
54272;DHT22;40184;53.362;5.216;2022-11-15T04:48:53;9.10;99.90
54272;DHT22;40184;53.362;5.216;2022-11-15T04:51:19;9.10;99.90
54272;DHT22;40184;53.362;5.216;2022-11-15T04:53:44;9.20;99.90
54272;DHT22;40184;53.362;5.216;2022-11-15T04:56:10;9.20;99.90
54272;DHT22;40184;53.362;5.216;2022-11-15T04:58:36;9.00;99.90
54272;DHT22;40184;53.362;5.216;2022-11-15T05:01:10;9.20;99.90
54272;DHT22;40184;53.362;5.216;2022-11-15T05:03:36;9.10;99.90
54272;DHT22;40184;53.362;5.216;2022-11-15T05:06:20;9.10;99.90
54272;DHT22;40184;53.362;5.216;2022-11-15T05:08:46;9.20;99.90
54272;DHT22;40184;53.362;5.216;2022-11-15T05:11:11;9.20;99.90
54272;DHT22;40184;53.362;5.216;2022-11-15T05:13:37;9.20;99.90
54272;DHT22;40184;53.362;5.216;2022-11-15T05:16:03;9.20;99.90
54272;DHT22;40184;53.362;5.216;2022-11-15T05:18:28;9.10;99.90
54272;DHT22;40184;53.362;5.216;2022-11-15T05:20:54;9.30;99.90
54272;DHT22;40184;53.362;5.216;2022-11-15T05:23:20;9.10;99.90
54272;DHT22;40184;53.362;5.216;2022-11-15T05:25:45;9.20;99.90
54272;DHT22;40184;53.362;5.216;2022-11-15T05:28:11;9.10;99.90
54272;DHT22;40184;53.362;5.216;2022-11-15T05:30:37;9.30;99.90
54272;DHT22;40184;53.362;5.216;2022-11-15T05:33:03;9.20;99.90
54272;DHT22;40184;53.362;5.216;2022-11-15T05:35:37;9.30;99.90
54272;DHT22;40184;53.362;5.216;2022-11-15T05:38:03;9.10;99.90
54272;DHT22;40184;53.362;5.216;2022-11-15T05:40:30;9.20;99.90
54272;DHT22;40184;53.362;5.216;2022-11-15T05:42:57;9.30;99.90
54272;DHT22;40184;53.362;5.216;2022-11-15T05:45:23;9.20;99.90
54272;DHT22;40184;53.362;5.216;2022-11-15T05:47:49;9.30;99.90
54272;DHT22;40184;53.362;5.216;2022-11-15T05:50:16;9.20;99.90
54272;DHT22;40184;53.362;5.216;2022-11-15T05:52:44;9.30;99.90
54272;DHT22;40184;53.362;5.216;2022-11-15T05:55:11;9.20;99.90
54272;DHT22;40184;53.362;5.216;2022-11-15T05:57:37;9.20;99.90
54272;DHT22;40184;53.362;5.216;2022-11-15T06:00:03;9.20;99.90
54272;DHT22;40184;53.362;5.216;2022-11-15T06:02:29;9.10;99.90
54272;DHT22;40184;53.362;5.216;2022-11-15T06:04:55;9.10;99.90
54272;DHT22;40184;53.362;5.216;2022-11-15T06:07:21;9.10;99.90
54272;DHT22;40184;53.362;5.216;2022-11-15T06:09:46;9.30;99.90
54272;DHT22;40184;53.362;5.216;2022-11-15T06:12:12;9.20;99.90
54272;DHT22;40184;53.362;5.216;2022-11-15T06:14:38;9.20;99.90
54272;DHT22;40184;53.362;5.216;2022-11-15T06:17:04;9.20;99.90
54272;DHT22;40184;53.362;5.216;2022-11-15T06:19:29;9.30;99.90
54272;DHT22;40184;53.362;5.216;2022-11-15T06:21:59;9.50;99.90
54272;DHT22;40184;53.362;5.216;2022-11-15T06:24:24;9.40;99.90
54272;DHT22;40184;53.362;5.216;2022-11-15T06:26:50;9.60;99.90
54272;DHT22;40184;53.362;5.216;2022-11-15T06:29:16;9.60;99.90
54272;DHT22;40184;53.362;5.216;2022-11-15T06:31:42;9.60;99.90
54272;DHT22;40184;53.362;5.216;2022-11-15T06:34:07;9.80;99.90
54272;DHT22;40184;53.362;5.216;2022-11-15T06:36:34;9.80;99.90
54272;DHT22;40184;53.362;5.216;2022-11-15T06:39:00;9.70;99.90
54272;DHT22;40184;53.362;5.216;2022-11-15T06:41:26;9.80;99.90
54272;DHT22;40184;53.362;5.216;2022-11-15T06:43:51;9.80;99.90
54272;DHT22;40184;53.362;5.216;2022-11-15T06:46:17;9.90;99.90
54272;DHT22;40184;53.362;5.216;2022-11-15T06:48:43;9.90;99.90
54272;DHT22;40184;53.362;5.216;2022-11-15T06:51:08;10.10;99.90
54272;DHT22;40184;53.362;5.216;2022-11-15T06:53:34;9.90;99.90
54272;DHT22;40184;53.362;5.216;2022-11-15T06:56:01;10.10;99.90
54272;DHT22;40184;53.362;5.216;2022-11-15T06:58:27;10.10;99.90
54272;DHT22;40184;53.362;5.216;2022-11-15T07:00:53;10.10;99.90
54272;DHT22;40184;53.362;5.216;2022-11-15T07:03:18;10.30;99.90
54272;DHT22;40184;53.362;5.216;2022-11-15T07:05:53;10.20;99.90
54272;DHT22;40184;53.362;5.216;2022-11-15T07:08:20;10.30;99.90
54272;DHT22;40184;53.362;5.216;2022-11-15T07:10:46;10.40;99.90
54272;DHT22;40184;53.362;5.216;2022-11-15T07:13:12;10.20;99.90
54272;DHT22;40184;53.362;5.216;2022-11-15T07:15:37;10.30;99.90
54272;DHT22;40184;53.362;5.216;2022-11-15T07:18:03;10.40;99.90
54272;DHT22;40184;53.362;5.216;2022-11-15T07:20:29;10.40;99.90
54272;DHT22;40184;53.362;5.216;2022-11-15T07:23:05;10.40;99.90
54272;DHT22;40184;53.362;5.216;2022-11-15T07:25:31;10.50;99.90
54272;DHT22;40184;53.362;5.216;2022-11-15T07:27:58;10.40;99.90
54272;DHT22;40184;53.362;5.216;2022-11-15T07:30:24;10.40;99.90
54272;DHT22;40184;53.362;5.216;2022-11-15T07:32:55;10.40;99.90
54272;DHT22;40184;53.362;5.216;2022-11-15T07:35:21;10.50;99.90
54272;DHT22;40184;53.362;5.216;2022-11-15T07:38:01;10.70;99.90
54272;DHT22;40184;53.362;5.216;2022-11-15T07:40:29;10.50;99.90
54272;DHT22;40184;53.362;5.216;2022-11-15T07:43:03;10.50;99.90
54272;DHT22;40184;53.362;5.216;2022-11-15T07:45:29;10.50;99.90
54272;DHT22;40184;53.362;5.216;2022-11-15T07:47:55;10.60;99.90
54272;DHT22;40184;53.362;5.216;2022-11-15T07:50:23;10.70;99.90
54272;DHT22;40184;53.362;5.216;2022-11-15T07:52:54;10.70;99.90
54272;DHT22;40184;53.362;5.216;2022-11-15T07:55:21;10.60;99.90
54272;DHT22;40184;53.362;5.216;2022-11-15T07:57:46;10.60;99.90
54272;DHT22;40184;53.362;5.216;2022-11-15T08:00:13;10.70;99.90
54272;DHT22;40184;53.362;5.216;2022-11-15T08:02:38;10.50;99.90
54272;DHT22;40184;53.362;5.216;2022-11-15T08:05:04;10.50;99.90
54272;DHT22;40184;53.362;5.216;2022-11-15T08:07:31;10.50;99.90
54272;DHT22;40184;53.362;5.216;2022-11-15T08:09:57;10.70;99.90
54272;DHT22;40184;53.362;5.216;2022-11-15T08:12:24;10.60;99.90
54272;DHT22;40184;53.362;5.216;2022-11-15T08:14:50;10.70;99.90
54272;DHT22;40184;53.362;5.216;2022-11-15T08:17:15;10.90;99.90
54272;DHT22;40184;53.362;5.216;2022-11-15T08:19:41;10.90;99.90
54272;DHT22;40184;53.362;5.216;2022-11-15T08:22:07;10.70;99.90
54272;DHT22;40184;53.362;5.216;2022-11-15T08:24:33;10.90;99.90
54272;DHT22;40184;53.362;5.216;2022-11-15T08:26:59;10.90;99.90
54272;DHT22;40184;53.362;5.216;2022-11-15T08:29:25;10.90;99.90
54272;DHT22;40184;53.362;5.216;2022-11-15T08:31:50;10.80;99.90
54272;DHT22;40184;53.362;5.216;2022-11-15T08:34:16;10.80;99.90
54272;DHT22;40184;53.362;5.216;2022-11-15T08:36:42;10.80;99.90
54272;DHT22;40184;53.362;5.216;2022-11-15T08:39:10;11.00;99.90
54272;DHT22;40184;53.362;5.216;2022-11-15T08:41:37;11.00;99.90
54272;DHT22;40184;53.362;5.216;2022-11-15T08:44:03;11.10;99.90
54272;DHT22;40184;53.362;5.216;2022-11-15T08:46:29;11.10;99.90
54272;DHT22;40184;53.362;5.216;2022-11-15T08:48:55;10.90;99.90
54272;DHT22;40184;53.362;5.216;2022-11-15T08:51:20;10.90;99.90
54272;DHT22;40184;53.362;5.216;2022-11-15T08:53:46;11.00;99.90
54272;DHT22;40184;53.362;5.216;2022-11-15T08:56:14;11.10;99.90
54272;DHT22;40184;53.362;5.216;2022-11-15T08:58:40;11.10;99.90
54272;DHT22;40184;53.362;5.216;2022-11-15T09:01:15;11.20;99.90
54272;DHT22;40184;53.362;5.216;2022-11-15T09:03:41;11.20;99.90
54272;DHT22;40184;53.362;5.216;2022-11-15T09:06:07;11.40;99.90
54272;DHT22;40184;53.362;5.216;2022-11-15T09:08:33;11.50;99.90
54272;DHT22;40184;53.362;5.216;2022-11-15T09:11:03;11.50;99.90
54272;DHT22;40184;53.362;5.216;2022-11-15T09:13:30;11.60;99.90
54272;DHT22;40184;53.362;5.216;2022-11-15T09:15:59;11.50;99.90
54272;DHT22;40184;53.362;5.216;2022-11-15T09:18:26;11.60;99.90
54272;DHT22;40184;53.362;5.216;2022-11-15T09:20:58;11.60;99.90
54272;DHT22;40184;53.362;5.216;2022-11-15T09:23:25;11.70;99.90
54272;DHT22;40184;53.362;5.216;2022-11-15T09:25:52;11.80;99.90
54272;DHT22;40184;53.362;5.216;2022-11-15T09:28:18;12.00;99.90
54272;DHT22;40184;53.362;5.216;2022-11-15T09:30:44;11.90;99.90
54272;DHT22;40184;53.362;5.216;2022-11-15T09:33:11;11.90;99.90
54272;DHT22;40184;53.362;5.216;2022-11-15T09:35:37;11.90;99.90
54272;DHT22;40184;53.362;5.216;2022-11-15T09:38:03;12.10;99.90
54272;DHT22;40184;53.362;5.216;2022-11-15T09:40:31;11.90;99.90
54272;DHT22;40184;53.362;5.216;2022-11-15T09:50:56;12.50;99.90
54272;DHT22;40184;53.362;5.216;2022-11-15T09:56:15;13.10;99.90
54272;DHT22;40184;53.362;5.216;2022-11-15T10:02:05;13.70;99.90
54272;DHT22;40184;53.362;5.216;2022-11-15T10:04:36;13.90;99.90
54272;DHT22;40184;53.362;5.216;2022-11-15T10:07:31;13.90;99.90
54272;DHT22;40184;53.362;5.216;2022-11-15T10:10:27;14.20;99.90
54272;DHT22;40184;53.362;5.216;2022-11-15T10:12:51;14.30;99.90
54272;DHT22;40184;53.362;5.216;2022-11-15T10:15:19;14.10;99.90
54272;DHT22;40184;53.362;5.216;2022-11-15T10:20:29;13.70;99.90
54272;DHT22;40184;53.362;5.216;2022-11-15T10:22:56;13.60;99.90
54272;DHT22;40184;53.362;5.216;2022-11-15T10:25:30;13.70;99.90
54272;DHT22;40184;53.362;5.216;2022-11-15T10:28:17;13.50;99.90
54272;DHT22;40184;53.362;5.216;2022-11-15T10:30:51;13.40;99.90
54272;DHT22;40184;53.362;5.216;2022-11-15T10:35:42;13.00;99.90
54272;DHT22;40184;53.362;5.216;2022-11-15T10:38:10;12.70;99.90
54272;DHT22;40184;53.362;5.216;2022-11-15T10:40:38;12.60;99.90
54272;DHT22;40184;53.362;5.216;2022-11-15T10:45:37;12.70;99.90
54272;DHT22;40184;53.362;5.216;2022-11-15T10:50:40;12.50;99.90
54272;DHT22;40184;53.362;5.216;2022-11-15T10:55:53;12.30;99.90
54272;DHT22;40184;53.362;5.216;2022-11-15T11:00:48;12.20;99.90
54272;DHT22;40184;53.362;5.216;2022-11-15T11:03:35;12.20;99.90
54272;DHT22;40184;53.362;5.216;2022-11-15T11:06:30;12.20;99.90
54272;DHT22;40184;53.362;5.216;2022-11-15T11:08:58;12.30;99.90
54272;DHT22;40184;53.362;5.216;2022-11-15T11:11:25;12.20;99.90
54272;DHT22;40184;53.362;5.216;2022-11-15T11:13:51;12.10;99.90
54272;DHT22;40184;53.362;5.216;2022-11-15T11:16:32;12.20;99.90
54272;DHT22;40184;53.362;5.216;2022-11-15T11:19:05;12.10;99.90
54272;DHT22;40184;53.362;5.216;2022-11-15T11:24:25;12.40;99.90
54272;DHT22;40184;53.362;5.216;2022-11-15T11:51:43;13.30;99.90
54272;DHT22;40184;53.362;5.216;2022-11-15T11:54:37;13.20;99.90
54272;DHT22;40184;53.362;5.216;2022-11-15T11:57:10;13.00;99.90
54272;DHT22;40184;53.362;5.216;2022-11-15T11:59:49;12.90;99.90
54272;DHT22;40184;53.362;5.216;2022-11-15T12:02:31;12.90;99.90
54272;DHT22;40184;53.362;5.216;2022-11-15T12:08:08;12.70;99.90
54272;DHT22;40184;53.362;5.216;2022-11-15T12:10:37;12.70;99.90
54272;DHT22;40184;53.362;5.216;2022-11-15T12:13:16;12.70;99.90
54272;DHT22;40184;53.362;5.216;2022-11-15T12:15:53;12.70;99.90
54272;DHT22;40184;53.362;5.216;2022-11-15T12:18:19;12.60;99.90
54272;DHT22;40184;53.362;5.216;2022-11-15T12:23:49;12.50;99.90
54272;DHT22;40184;53.362;5.216;2022-11-15T12:26:24;12.50;99.90
54272;DHT22;40184;53.362;5.216;2022-11-15T12:28:55;12.40;99.90
54272;DHT22;40184;53.362;5.216;2022-11-15T12:34:03;12.40;99.90
54272;DHT22;40184;53.362;5.216;2022-11-15T12:36:38;12.40;99.90
54272;DHT22;40184;53.362;5.216;2022-11-15T12:39:05;12.30;99.90
54272;DHT22;40184;53.362;5.216;2022-11-15T12:41:33;12.20;99.90
54272;DHT22;40184;53.362;5.216;2022-11-15T12:44:00;12.30;99.90
54272;DHT22;40184;53.362;5.216;2022-11-15T12:49:00;12.30;99.90
54272;DHT22;40184;53.362;5.216;2022-11-15T13:02:41;12.10;99.90
54272;DHT22;40184;53.362;5.216;2022-11-15T13:17:38;11.90;99.90
54272;DHT22;40184;53.362;5.216;2022-11-15T13:30:53;12.00;99.90
54272;DHT22;40184;53.362;5.216;2022-11-15T13:33:34;11.90;99.90
54272;DHT22;40184;53.362;5.216;2022-11-15T13:36:07;11.90;99.90
54272;DHT22;40184;53.362;5.216;2022-11-15T13:38:37;11.90;99.90
54272;DHT22;40184;53.362;5.216;2022-11-15T13:43:43;12.00;99.90
54272;DHT22;40184;53.362;5.216;2022-11-15T13:48:50;11.90;99.90
54272;DHT22;40184;53.362;5.216;2022-11-15T13:51:39;11.90;99.90
54272;DHT22;40184;53.362;5.216;2022-11-15T13:54:30;11.90;99.90
54272;DHT22;40184;53.362;5.216;2022-11-15T13:57:11;12.00;99.90
54272;DHT22;40184;53.362;5.216;2022-11-15T13:59:46;12.00;99.90
54272;DHT22;40184;53.362;5.216;2022-11-15T14:02:15;12.00;99.90
54272;DHT22;40184;53.362;5.216;2022-11-15T14:07:26;11.90;99.90
54272;DHT22;40184;53.362;5.216;2022-11-15T14:09:53;11.80;99.90
54272;DHT22;40184;53.362;5.216;2022-11-15T14:14:48;11.80;99.90
54272;DHT22;40184;53.362;5.216;2022-11-15T14:17:40;11.70;99.90
54272;DHT22;40184;53.362;5.216;2022-11-15T14:23:02;11.70;99.90
54272;DHT22;40184;53.362;5.216;2022-11-15T14:25:33;11.80;99.90
54272;DHT22;40184;53.362;5.216;2022-11-15T14:30:42;11.80;99.90
54272;DHT22;40184;53.362;5.216;2022-11-15T14:33:23;11.70;99.90
54272;DHT22;40184;53.362;5.216;2022-11-15T14:35:53;11.70;99.90
54272;DHT22;40184;53.362;5.216;2022-11-15T14:38:19;11.70;99.90
54272;DHT22;40184;53.362;5.216;2022-11-15T14:40:45;11.80;99.90
54272;DHT22;40184;53.362;5.216;2022-11-15T14:43:12;11.70;99.90
54272;DHT22;40184;53.362;5.216;2022-11-15T14:45:38;11.70;99.90
54272;DHT22;40184;53.362;5.216;2022-11-15T14:48:04;11.70;99.90
54272;DHT22;40184;53.362;5.216;2022-11-15T14:50:32;11.60;99.90
54272;DHT22;40184;53.362;5.216;2022-11-15T14:52:58;11.60;99.90
54272;DHT22;40184;53.362;5.216;2022-11-15T14:55:26;11.70;99.90
54272;DHT22;40184;53.362;5.216;2022-11-15T14:57:54;11.60;99.90
54272;DHT22;40184;53.362;5.216;2022-11-15T15:00:20;11.60;99.90
54272;DHT22;40184;53.362;5.216;2022-11-15T15:02:47;11.60;99.90
54272;DHT22;40184;53.362;5.216;2022-11-15T15:05:23;11.50;99.90
54272;DHT22;40184;53.362;5.216;2022-11-15T15:07:49;11.50;99.90
54272;DHT22;40184;53.362;5.216;2022-11-15T15:10:16;11.50;99.90
54272;DHT22;40184;53.362;5.216;2022-11-15T15:12:42;11.60;99.90
54272;DHT22;40184;53.362;5.216;2022-11-15T15:15:16;11.50;99.90
54272;DHT22;40184;53.362;5.216;2022-11-15T15:17:42;11.50;99.90
54272;DHT22;40184;53.362;5.216;2022-11-15T15:20:09;11.40;99.90
54272;DHT22;40184;53.362;5.216;2022-11-15T15:22:35;11.40;99.90
54272;DHT22;40184;53.362;5.216;2022-11-15T15:25:01;11.40;99.90
54272;DHT22;40184;53.362;5.216;2022-11-15T15:27:27;11.30;99.90
54272;DHT22;40184;53.362;5.216;2022-11-15T15:29:53;11.40;99.90
54272;DHT22;40184;53.362;5.216;2022-11-15T15:32:19;11.30;99.90
54272;DHT22;40184;53.362;5.216;2022-11-15T15:34:44;11.20;99.90
54272;DHT22;40184;53.362;5.216;2022-11-15T15:39:44;11.20;99.90
54272;DHT22;40184;53.362;5.216;2022-11-15T15:42:10;11.00;99.90
54272;DHT22;40184;53.362;5.216;2022-11-15T15:44:36;11.00;99.90
54272;DHT22;40184;53.362;5.216;2022-11-15T15:47:01;11.10;99.90
54272;DHT22;40184;53.362;5.216;2022-11-15T15:49:27;11.00;99.90
54272;DHT22;40184;53.362;5.216;2022-11-15T15:51:53;11.00;99.90
54272;DHT22;40184;53.362;5.216;2022-11-15T15:54:18;11.00;99.90
54272;DHT22;40184;53.362;5.216;2022-11-15T15:56:44;11.00;99.90
54272;DHT22;40184;53.362;5.216;2022-11-15T15:59:10;11.10;99.90
54272;DHT22;40184;53.362;5.216;2022-11-15T16:01:35;11.10;99.90
54272;DHT22;40184;53.362;5.216;2022-11-15T16:04:01;10.90;99.90
54272;DHT22;40184;53.362;5.216;2022-11-15T16:08:58;10.90;99.90
54272;DHT22;40184;53.362;5.216;2022-11-15T16:11:24;10.90;99.90
54272;DHT22;40184;53.362;5.216;2022-11-15T16:13:49;10.90;99.90
54272;DHT22;40184;53.362;5.216;2022-11-15T16:16:21;10.90;99.90
54272;DHT22;40184;53.362;5.216;2022-11-15T16:18:47;11.00;99.90
54272;DHT22;40184;53.362;5.216;2022-11-15T16:21:13;11.00;99.90
54272;DHT22;40184;53.362;5.216;2022-11-15T16:23:39;11.00;99.90
54272;DHT22;40184;53.362;5.216;2022-11-15T16:26:18;11.10;99.90
54272;DHT22;40184;53.362;5.216;2022-11-15T16:28:45;10.90;99.90
54272;DHT22;40184;53.362;5.216;2022-11-15T16:31:11;11.00;99.90
54272;DHT22;40184;53.362;5.216;2022-11-15T16:33:38;11.00;99.90
54272;DHT22;40184;53.362;5.216;2022-11-15T16:36:06;11.10;99.90
54272;DHT22;40184;53.362;5.216;2022-11-15T16:38:32;11.00;99.90
54272;DHT22;40184;53.362;5.216;2022-11-15T16:40:58;11.00;99.90
54272;DHT22;40184;53.362;5.216;2022-11-15T16:43:23;11.00;99.90
54272;DHT22;40184;53.362;5.216;2022-11-15T16:45:50;11.00;99.90
54272;DHT22;40184;53.362;5.216;2022-11-15T16:48:22;11.00;99.90
54272;DHT22;40184;53.362;5.216;2022-11-15T16:50:49;11.00;99.90
54272;DHT22;40184;53.362;5.216;2022-11-15T16:53:15;11.00;99.90
54272;DHT22;40184;53.362;5.216;2022-11-15T16:55:41;11.00;99.90
54272;DHT22;40184;53.362;5.216;2022-11-15T16:58:08;11.00;99.90
54272;DHT22;40184;53.362;5.216;2022-11-15T17:00:34;11.00;99.90
54272;DHT22;40184;53.362;5.216;2022-11-15T17:02:59;11.00;99.90
54272;DHT22;40184;53.362;5.216;2022-11-15T17:05:25;11.10;99.90
54272;DHT22;40184;53.362;5.216;2022-11-15T17:07:54;11.00;99.90
54272;DHT22;40184;53.362;5.216;2022-11-15T17:10:24;11.10;99.90
54272;DHT22;40184;53.362;5.216;2022-11-15T17:12:50;11.00;99.90
54272;DHT22;40184;53.362;5.216;2022-11-15T17:15:17;11.10;99.90
54272;DHT22;40184;53.362;5.216;2022-11-15T17:17:43;11.10;99.90
54272;DHT22;40184;53.362;5.216;2022-11-15T17:20:17;11.00;99.90
54272;DHT22;40184;53.362;5.216;2022-11-15T17:22:43;11.00;99.90
54272;DHT22;40184;53.362;5.216;2022-11-15T17:25:09;11.10;99.90
54272;DHT22;40184;53.362;5.216;2022-11-15T17:27:35;11.00;99.90
54272;DHT22;40184;53.362;5.216;2022-11-15T17:30:01;11.20;99.90
54272;DHT22;40184;53.362;5.216;2022-11-15T17:32:26;11.10;99.90
54272;DHT22;40184;53.362;5.216;2022-11-15T17:34:52;11.10;99.90
54272;DHT22;40184;53.362;5.216;2022-11-15T17:37:18;11.20;99.90
54272;DHT22;40184;53.362;5.216;2022-11-15T17:39:43;11.20;99.90
54272;DHT22;40184;53.362;5.216;2022-11-15T17:42:09;11.20;99.90
54272;DHT22;40184;53.362;5.216;2022-11-15T17:44:35;11.20;99.90
54272;DHT22;40184;53.362;5.216;2022-11-15T17:47:00;11.20;99.90
54272;DHT22;40184;53.362;5.216;2022-11-15T17:49:26;11.30;99.90
54272;DHT22;40184;53.362;5.216;2022-11-15T17:51:52;11.30;99.90
54272;DHT22;40184;53.362;5.216;2022-11-15T17:54:17;11.30;99.90
54272;DHT22;40184;53.362;5.216;2022-11-15T17:56:43;11.40;99.90
54272;DHT22;40184;53.362;5.216;2022-11-15T17:59:09;11.40;99.90
54272;DHT22;40184;53.362;5.216;2022-11-15T18:01:36;11.30;99.90
54272;DHT22;40184;53.362;5.216;2022-11-15T18:04:04;11.40;99.90
54272;DHT22;40184;53.362;5.216;2022-11-15T18:06:33;11.30;99.90
54272;DHT22;40184;53.362;5.216;2022-11-15T18:09:00;11.40;99.90
54272;DHT22;40184;53.362;5.216;2022-11-15T18:11:33;11.40;99.90
54272;DHT22;40184;53.362;5.216;2022-11-15T18:14:02;11.30;99.90
54272;DHT22;40184;53.362;5.216;2022-11-15T18:16:29;11.30;99.90
54272;DHT22;40184;53.362;5.216;2022-11-15T18:18:55;11.30;99.90
54272;DHT22;40184;53.362;5.216;2022-11-15T18:21:23;11.40;99.90
54272;DHT22;40184;53.362;5.216;2022-11-15T18:23:52;11.40;99.90
54272;DHT22;40184;53.362;5.216;2022-11-15T18:26:18;11.30;99.90